Time,TemperatureF,DewpointF,PressureIn,WindDirection,WindDirectionDegrees,WindSpeedMPH,WindSpeedGustMPH,Humidity,HourlyPrecipIn,Conditions,Clouds,dailyrainin,SolarRadiationWatts/m^2,SoftwareType,DateUTC
2013-03-01 00:01:00,35.0,33.0,-100.00,North,4,1.0,5.0,93,0.00,,,0.08,0.000000,,2013-03-01 07:01:00,
2013-03-01 00:11:00,35.0,33.0,-100.00,North,4,1.0,5.0,93,0.00,,,0.08,0.000000,,2013-03-01 07:11:00,
2013-03-01 00:21:00,35.0,33.0,-100.00,North,4,1.0,5.0,93,0.00,,,0.08,0.000000,,2013-03-01 07:21:00,
2013-03-01 00:32:00,35.0,33.0,-100.00,North,4,1.0,5.0,93,0.00,,,0.08,0.000000,,2013-03-01 07:32:00,
2013-03-01 00:41:00,35.0,33.0,-100.00,North,4,1.0,5.0,93,0.00,,,0.08,0.000000,,2013-03-01 07:41:00,
2013-03-01 00:42:00,33.0,32.0,-100.00,North,349,2.0,3.0,97,0.00,,,0.08,0.000000,,2013-03-01 07:42:00,
2013-03-01 01:01:00,33.0,32.0,-100.00,North,349,2.0,3.0,97,0.00,,,0.08,0.000000,,2013-03-01 08:01:00,
2013-03-01 01:11:00,33.0,32.0,-100.00,North,349,2.0,3.0,97,0.00,,,0.08,0.000000,,2013-03-01 08:11:00,
2013-03-01 01:22:00,33.0,32.0,-100.00,North,349,2.0,3.0,97,0.00,,,0.08,0.000000,,2013-03-01 08:22:00,
2013-03-01 01:32:00,33.0,32.0,-100.00,North,349,2.0,3.0,97,0.00,,,0.08,0.000000,,2013-03-01 08:32:00,
2013-03-01 02:02:00,34.0,33.0,-100.00,NNE,27,1.0,5.0,97,0.00,,,0.08,0.000000,,2013-03-01 09:02:00,
2013-03-01 02:11:00,34.0,33.0,-100.00,NNE,27,1.0,5.0,97,0.00,,,0.08,0.000000,,2013-03-01 09:11:00,
2013-03-01 02:21:00,34.0,33.0,-100.00,NNE,27,1.0,5.0,97,0.00,,,0.08,0.000000,,2013-03-01 09:21:00,
2013-03-01 02:31:00,34.0,33.0,-100.00,NNE,27,1.0,5.0,97,0.00,,,0.08,0.000000,,2013-03-01 09:31:00,
2013-03-01 02:41:00,34.0,33.0,-100.00,NNE,27,1.0,5.0,97,0.00,,,0.08,0.000000,,2013-03-01 09:41:00,
2013-03-01 03:01:00,34.0,33.0,-100.00,North,352,3.0,6.0,95,0.00,,,0.08,0.000000,,2013-03-01 10:01:00,
2013-03-01 03:11:00,34.0,33.0,-100.00,North,352,3.0,6.0,95,0.00,,,0.08,0.000000,,2013-03-01 10:11:00,
2013-03-01 03:21:00,34.0,33.0,-100.00,North,352,3.0,6.0,95,0.00,,,0.08,0.000000,,2013-03-01 10:21:00,
2013-03-01 03:32:00,34.0,33.0,-100.00,North,352,3.0,6.0,95,0.00,,,0.08,0.000000,,2013-03-01 10:32:00,
2013-03-01 03:41:00,34.0,33.0,-100.00,North,352,3.0,6.0,95,0.00,,,0.08,0.000000,,2013-03-01 10:41:00,
2013-03-01 04:01:00,35.0,33.0,-100.00,NNW,328,1.0,6.0,94,0.00,,,0.08,0.000000,,2013-03-01 11:01:00,
2013-03-01 04:11:00,35.0,33.0,-100.00,NNW,328,1.0,6.0,94,0.00,,,0.08,0.000000,,2013-03-01 11:11:00,
2013-03-01 04:22:00,35.0,33.0,-100.00,NNW,328,1.0,6.0,94,0.00,,,0.08,0.000000,,2013-03-01 11:22:00,
2013-03-01 04:32:00,35.0,33.0,-100.00,NNW,328,1.0,6.0,94,0.00,,,0.08,0.000000,,2013-03-01 11:32:00,
2013-03-01 04:41:00,35.0,33.0,-100.00,NNW,328,1.0,6.0,94,0.00,,,0.08,0.000000,,2013-03-01 11:41:00,
2013-03-01 04:42:00,34.0,33.0,-100.00,ENE,68,0.0,7.0,97,0.00,,,0.08,0.000000,,2013-03-01 11:42:00,
2013-03-01 05:01:00,34.0,33.0,-100.00,ENE,68,0.0,7.0,97,0.00,,,0.08,0.000000,,2013-03-01 12:01:00,
2013-03-01 05:11:00,34.0,33.0,-100.00,ENE,68,0.0,7.0,97,0.00,,,0.08,0.000000,,2013-03-01 12:11:00,
2013-03-01 05:21:00,34.0,33.0,-100.00,ENE,68,0.0,7.0,97,0.00,,,0.08,0.000000,,2013-03-01 12:21:00,
2013-03-01 05:32:00,34.0,33.0,-100.00,ENE,68,0.0,7.0,97,0.00,,,0.08,0.000000,,2013-03-01 12:32:00,
2013-03-01 06:01:00,34.0,33.0,-100.00,NE,50,2.0,5.0,97,0.00,,,0.08,0.000000,,2013-03-01 13:01:00,
2013-03-01 06:11:00,34.0,33.0,-100.00,NE,50,2.0,5.0,97,0.00,,,0.08,0.000000,,2013-03-01 13:11:00,
2013-03-01 06:21:00,34.0,33.0,-100.00,NE,50,2.0,5.0,97,0.00,,,0.08,0.000000,,2013-03-01 13:21:00,
2013-03-01 06:32:00,34.0,33.0,-100.00,NE,50,2.0,5.0,97,0.00,,,0.08,0.000000,,2013-03-01 13:32:00,
2013-03-01 06:41:00,34.0,33.0,-100.00,NE,50,2.0,5.0,97,0.00,,,0.08,0.000000,,2013-03-01 13:41:00,
2013-03-01 07:01:00,34.0,34.0,-100.00,NNW,347,3.0,6.0,98,0.00,,,0.08,0.000000,,2013-03-01 14:01:00,
2013-03-01 07:11:00,34.0,34.0,-100.00,NNW,347,3.0,6.0,98,0.00,,,0.08,0.000000,,2013-03-01 14:11:00,
2013-03-01 07:21:00,34.0,34.0,-100.00,NNW,347,3.0,6.0,98,0.00,,,0.08,0.000000,,2013-03-01 14:21:00,
2013-03-01 07:32:00,34.0,34.0,-100.00,NNW,347,3.0,6.0,98,0.00,,,0.08,0.000000,,2013-03-01 14:32:00,
2013-03-01 07:41:00,34.0,34.0,-100.00,NNW,347,3.0,6.0,98,0.00,,,0.08,0.000000,,2013-03-01 14:41:00,
2013-03-01 07:42:00,37.0,34.0,-100.00,North,4,1.0,5.0,90,0.00,,,0.08,2.000000,,2013-03-01 14:42:00,
2013-03-01 08:01:00,37.0,34.0,-100.00,North,4,1.0,5.0,90,0.00,,,0.08,2.000000,,2013-03-01 15:01:00,
2013-03-01 08:11:00,37.0,34.0,-100.00,North,4,1.0,5.0,90,0.00,,,0.08,2.000000,,2013-03-01 15:11:00,
2013-03-01 08:21:00,37.0,34.0,-100.00,North,4,1.0,5.0,90,0.00,,,0.08,2.000000,,2013-03-01 15:21:00,
2013-03-01 08:31:00,37.0,34.0,-100.00,North,4,1.0,5.0,90,0.00,,,0.08,2.000000,,2013-03-01 15:31:00,
2013-03-01 09:01:00,38.0,36.0,-100.00,NW,317,1.0,7.0,91,0.00,,,0.08,36.000000,,2013-03-01 16:01:00,
2013-03-01 09:11:00,38.0,36.0,-100.00,NW,317,1.0,7.0,91,0.00,,,0.08,36.000000,,2013-03-01 16:11:00,
2013-03-01 09:21:00,38.0,36.0,-100.00,NW,317,1.0,7.0,91,0.00,,,0.08,36.000000,,2013-03-01 16:21:00,
2013-03-01 09:31:00,38.0,36.0,-100.00,NW,317,1.0,7.0,91,0.00,,,0.08,36.000000,,2013-03-01 16:31:00,
2013-03-01 09:41:00,38.0,36.0,-100.00,NW,317,1.0,7.0,91,0.00,,,0.08,36.000000,,2013-03-01 16:41:00,
2013-03-01 10:01:00,38.0,35.0,-100.00,North,0,2.0,9.0,89,0.00,,,0.08,60.000000,,2013-03-01 17:01:00,
2013-03-01 10:11:00,38.0,35.0,-100.00,North,0,2.0,9.0,89,0.00,,,0.08,60.000000,,2013-03-01 17:11:00,
2013-03-01 10:21:00,38.0,35.0,-100.00,North,0,2.0,9.0,89,0.00,,,0.08,60.000000,,2013-03-01 17:21:00,
2013-03-01 10:31:00,38.0,35.0,-100.00,North,0,2.0,9.0,89,0.00,,,0.08,60.000000,,2013-03-01 17:31:00,
2013-03-01 10:41:00,38.0,35.0,-100.00,North,0,2.0,9.0,89,0.00,,,0.08,60.000000,,2013-03-01 17:41:00,
2013-03-01 11:01:00,39.0,35.0,-100.00,NW,315,4.0,5.0,86,0.00,,,0.08,105.000000,,2013-03-01 18:01:00,
2013-03-01 11:12:00,39.0,35.0,-100.00,NW,315,4.0,5.0,86,0.00,,,0.08,105.000000,,2013-03-01 18:12:00,
2013-03-01 11:22:00,39.0,35.0,-100.00,NW,315,4.0,5.0,86,0.00,,,0.08,105.000000,,2013-03-01 18:22:00,
2013-03-01 11:31:00,39.0,35.0,-100.00,NW,315,4.0,5.0,86,0.00,,,0.08,105.000000,,2013-03-01 18:31:00,
2013-03-01 11:41:00,39.0,35.0,-100.00,NW,315,4.0,5.0,86,0.00,,,0.08,105.000000,,2013-03-01 18:41:00,
2013-03-01 12:01:00,41.0,36.0,-100.00,SE,136,3.0,5.0,82,0.00,,,0.08,201.000000,,2013-03-01 19:01:00,
2013-03-01 12:11:00,41.0,36.0,-100.00,SE,136,3.0,5.0,82,0.00,,,0.08,201.000000,,2013-03-01 19:11:00,
2013-03-01 12:21:00,41.0,36.0,-100.00,SE,136,3.0,5.0,82,0.00,,,0.08,201.000000,,2013-03-01 19:21:00,
2013-03-01 12:31:00,41.0,36.0,-100.00,SE,136,3.0,5.0,82,0.00,,,0.08,201.000000,,2013-03-01 19:31:00,
2013-03-01 12:41:00,41.0,36.0,-100.00,SE,136,3.0,5.0,82,0.00,,,0.08,201.000000,,2013-03-01 19:41:00,
2013-03-01 13:01:00,40.0,35.0,-100.00,SSE,155,1.0,6.0,83,0.00,,,0.06,154.000000,,2013-03-01 20:01:00,
2013-03-01 13:11:00,40.0,35.0,-100.00,SSE,155,1.0,6.0,83,0.00,,,0.06,154.000000,,2013-03-01 20:11:00,
2013-03-01 13:21:00,40.0,35.0,-100.00,SSE,155,1.0,6.0,83,0.00,,,0.06,154.000000,,2013-03-01 20:21:00,
2013-03-01 13:31:00,40.0,35.0,-100.00,SSE,155,1.0,6.0,83,0.00,,,0.06,154.000000,,2013-03-01 20:31:00,
2013-03-01 13:41:00,40.0,35.0,-100.00,SSE,155,1.0,6.0,83,0.00,,,0.06,154.000000,,2013-03-01 20:41:00,
2013-03-01 14:01:00,41.0,36.0,-100.00,East,90,2.0,4.0,82,0.00,,,0.05,135.000000,,2013-03-01 21:01:00,
2013-03-01 14:11:00,41.0,36.0,-100.00,East,90,2.0,4.0,82,0.00,,,0.05,135.000000,,2013-03-01 21:11:00,
2013-03-01 14:21:00,41.0,36.0,-100.00,East,90,2.0,4.0,82,0.00,,,0.05,135.000000,,2013-03-01 21:21:00,
2013-03-01 14:31:00,41.0,36.0,-100.00,East,90,2.0,4.0,82,0.00,,,0.05,135.000000,,2013-03-01 21:31:00,
2013-03-01 14:41:00,41.0,36.0,-100.00,East,90,2.0,4.0,82,0.00,,,0.05,135.000000,,2013-03-01 21:41:00,
2013-03-01 15:01:00,45.0,38.0,-100.00,East,97,3.0,5.0,75,0.00,,,0.04,248.000000,,2013-03-01 22:01:00,
2013-03-01 15:11:00,45.0,38.0,-100.00,East,97,3.0,5.0,75,0.00,,,0.04,248.000000,,2013-03-01 22:11:00,
2013-03-01 15:21:00,45.0,38.0,-100.00,East,97,3.0,5.0,75,0.00,,,0.04,248.000000,,2013-03-01 22:21:00,
2013-03-01 15:31:00,45.0,38.0,-100.00,East,97,3.0,5.0,75,0.00,,,0.04,248.000000,,2013-03-01 22:31:00,
2013-03-01 15:41:00,45.0,38.0,-100.00,East,97,3.0,5.0,75,0.00,,,0.04,248.000000,,2013-03-01 22:41:00,
2013-03-01 16:01:00,50.0,39.0,-100.00,ESE,104,2.0,4.0,65,0.00,,,0.02,315.000000,,2013-03-01 23:01:00,
2013-03-01 16:11:00,50.0,39.0,-100.00,ESE,104,2.0,4.0,65,0.00,,,0.02,315.000000,,2013-03-01 23:11:00,
2013-03-01 16:21:00,50.0,39.0,-100.00,ESE,104,2.0,4.0,65,0.00,,,0.02,315.000000,,2013-03-01 23:21:00,
2013-03-01 16:31:00,50.0,39.0,-100.00,ESE,104,2.0,4.0,65,0.00,,,0.02,315.000000,,2013-03-01 23:31:00,
2013-03-01 16:41:00,50.0,39.0,-100.00,ESE,104,2.0,4.0,65,0.00,,,0.02,315.000000,,2013-03-01 23:41:00,
2013-03-01 17:01:00,51.0,39.0,-100.00,ESE,121,1.0,4.0,64,0.00,,,0.01,313.000000,,2013-03-02 00:01:00,
2013-03-01 17:11:00,51.0,39.0,-100.00,ESE,121,1.0,4.0,64,0.00,,,0.01,313.000000,,2013-03-02 00:11:00,
2013-03-01 17:21:00,51.0,39.0,-100.00,ESE,121,1.0,4.0,64,0.00,,,0.01,313.000000,,2013-03-02 00:21:00,
2013-03-01 17:31:00,51.0,39.0,-100.00,ESE,121,1.0,4.0,64,0.00,,,0.01,313.000000,,2013-03-02 00:31:00,
2013-03-01 17:41:00,51.0,39.0,-100.00,ESE,121,1.0,4.0,64,0.00,,,0.01,313.000000,,2013-03-02 00:41:00,
2013-03-01 18:01:00,45.0,38.0,-100.00,NNW,332,1.0,3.0,75,0.00,,,0.01,137.000000,,2013-03-02 01:01:00,
2013-03-01 18:11:00,45.0,38.0,-100.00,NNW,332,1.0,3.0,75,0.00,,,0.01,137.000000,,2013-03-02 01:11:00,
2013-03-01 18:21:00,45.0,38.0,-100.00,NNW,332,1.0,3.0,75,0.00,,,0.01,137.000000,,2013-03-02 01:21:00,
2013-03-01 18:31:00,45.0,38.0,-100.00,NNW,332,1.0,3.0,75,0.00,,,0.01,137.000000,,2013-03-02 01:31:00,
2013-03-01 18:41:00,45.0,38.0,-100.00,NNW,332,1.0,3.0,75,0.00,,,0.01,137.000000,,2013-03-02 01:41:00,
2013-03-01 19:01:00,42.0,38.0,-100.00,North,352,0.0,5.0,85,0.00,,,0.00,41.000000,,2013-03-02 02:01:00,
2013-03-01 19:11:00,42.0,38.0,-100.00,North,352,0.0,5.0,85,0.00,,,0.00,41.000000,,2013-03-02 02:11:00,
2013-03-01 19:21:00,42.0,38.0,-100.00,North,352,0.0,5.0,85,0.00,,,0.00,41.000000,,2013-03-02 02:21:00,
2013-03-01 19:31:00,42.0,38.0,-100.00,North,352,0.0,5.0,85,0.00,,,0.00,41.000000,,2013-03-02 02:31:00,
2013-03-01 19:41:00,42.0,38.0,-100.00,North,352,0.0,5.0,85,0.00,,,0.00,41.000000,,2013-03-02 02:41:00,
2013-03-01 21:01:00,39.0,36.0,-100.00,NNW,337,1.0,8.0,89,-99.99,,,0.00,0.000000,,2013-03-02 04:01:00,
2013-03-01 21:11:00,39.0,36.0,-100.00,NNW,337,1.0,8.0,89,-99.99,,,0.00,0.000000,,2013-03-02 04:11:00,
2013-03-01 21:21:00,39.0,36.0,-100.00,NNW,337,1.0,8.0,89,-99.99,,,0.00,0.000000,,2013-03-02 04:21:00,
2013-03-01 21:31:00,39.0,36.0,-100.00,NNW,337,1.0,8.0,89,-99.99,,,0.00,0.000000,,2013-03-02 04:31:00,
2013-03-01 21:41:00,39.0,36.0,-100.00,NNW,337,1.0,8.0,89,-99.99,,,0.00,0.000000,,2013-03-02 04:41:00,
2013-03-01 22:01:00,38.0,36.0,-100.00,East,86,2.0,5.0,92,0.00,,,0.00,0.000000,,2013-03-02 05:01:00,
2013-03-01 22:12:00,38.0,36.0,-100.00,East,86,2.0,5.0,92,0.00,,,0.00,0.000000,,2013-03-02 05:12:00,
2013-03-01 22:22:00,38.0,36.0,-100.00,East,86,2.0,5.0,92,0.00,,,0.00,0.000000,,2013-03-02 05:22:00,
2013-03-01 22:31:00,38.0,36.0,-100.00,East,86,2.0,5.0,92,0.00,,,0.00,0.000000,,2013-03-02 05:31:00,
2013-03-01 22:41:00,38.0,36.0,-100.00,East,86,2.0,5.0,92,0.00,,,0.00,0.000000,,2013-03-02 05:41:00,
2013-03-01 23:01:00,41.0,36.0,-100.00,NNE,22,4.0,8.0,81,0.00,,,0.00,0.000000,,2013-03-02 06:01:00,
2013-03-01 23:11:00,41.0,36.0,-100.00,NNE,22,4.0,8.0,81,0.00,,,0.00,0.000000,,2013-03-02 06:11:00,
2013-03-01 23:21:00,41.0,36.0,-100.00,NNE,22,4.0,8.0,81,0.00,,,0.00,0.000000,,2013-03-02 06:21:00,
2013-03-01 23:31:00,41.0,36.0,-100.00,NNE,22,4.0,8.0,81,0.00,,,0.00,0.000000,,2013-03-02 06:31:00,
2013-03-01 23:41:00,41.0,36.0,-100.00,NNE,22,4.0,8.0,81,0.00,,,0.00,0.000000,,2013-03-02 06:41:00,